createdAt,value
2023-01-28T00:01:18.160Z,90.00
2023-01-28T00:03:46.136Z,82.23
2023-01-28T00:06:16.286Z,91.43
2023-01-28T00:08:43.940Z,93.23
2023-01-28T00:11:14.039Z,89.00
2023-01-28T00:13:42.109Z,88.20
2023-01-28T00:16:10.614Z,95.23
2023-01-28T00:18:39.139Z,93.30
2023-01-28T00:21:09.523Z,91.97
2023-01-28T00:23:40.279Z,90.43
2023-01-28T00:26:11.222Z,96.10
2023-01-28T00:28:41.847Z,92.67
2023-01-28T00:31:10.740Z,93.03
2023-01-28T00:33:38.820Z,98.93
2023-01-28T00:36:07.624Z,96.97
2023-01-28T00:38:35.757Z,93.20
2023-01-28T00:41:15.685Z,102.67
2023-01-28T00:43:44.766Z,105.73
2023-01-28T00:46:14.081Z,85.60
2023-01-28T00:48:43.506Z,90.93
2023-01-28T00:51:13.523Z,106.27
2023-01-28T00:53:42.100Z,92.00
2023-01-28T00:56:12.888Z,94.90
2023-01-28T00:58:42.727Z,92.93
2023-01-28T01:01:12.311Z,87.87
2023-01-28T01:03:40.211Z,91.10
2023-01-28T01:06:08.983Z,93.77
2023-01-28T01:08:39.902Z,91.37
2023-01-28T01:11:09.161Z,88.03
2023-01-28T01:13:37.851Z,91.20
2023-01-28T01:16:09.717Z,96.00
2023-01-28T01:18:42.058Z,86.70
2023-01-28T01:21:11.594Z,80.43
2023-01-28T01:23:39.417Z,87.80
2023-01-28T01:26:08.570Z,90.13
2023-01-28T01:28:36.672Z,84.87
2023-01-28T01:31:07.573Z,85.70
2023-01-28T01:33:35.920Z,84.13
2023-01-28T01:36:03.875Z,85.97
2023-01-28T01:38:31.550Z,83.53
2023-01-28T01:41:00.074Z,79.20
2023-01-28T01:43:50.667Z,83.23
2023-01-28T01:46:23.666Z,88.40
2023-01-28T01:48:53.332Z,83.20
2023-01-28T01:51:27.067Z,89.03
2023-01-28T01:53:58.093Z,87.87
2023-01-28T01:56:31.698Z,86.47
2023-01-28T01:59:00.745Z,90.63
2023-01-28T02:01:32.471Z,85.03
2023-01-28T02:04:07.034Z,93.53
2023-01-28T02:06:37.613Z,89.60
2023-01-28T02:09:22.475Z,93.90
2023-01-28T02:11:52.339Z,88.43
2023-01-28T02:14:30.671Z,96.57
2023-01-28T02:17:01.640Z,98.53
2023-01-28T02:19:38.213Z,92.37
2023-01-28T02:22:27.881Z,87.33
2023-01-28T02:25:18.730Z,87.10
2023-01-28T02:28:10.049Z,87.93
2023-01-28T02:30:41.662Z,83.10
2023-01-28T02:33:18.373Z,91.43
2023-01-28T02:35:53.426Z,86.80
2023-01-28T02:38:27.613Z,89.10
2023-01-28T02:41:06.396Z,87.57
2023-01-28T02:43:38.513Z,87.13
2023-01-28T02:46:34.493Z,88.87
2023-01-28T02:49:05.876Z,87.90
2023-01-28T02:51:47.423Z,84.13
2023-01-28T02:54:25.163Z,86.20
2023-01-28T02:57:01.030Z,87.13
2023-01-28T02:59:37.079Z,85.73
2023-01-28T03:02:17.632Z,82.87
2023-01-28T03:04:51.387Z,89.50
2023-01-28T03:07:20.902Z,93.13
2023-01-28T03:09:51.129Z,89.67
2023-01-28T03:12:40.363Z,94.17
2023-01-28T03:15:32.153Z,87.13
2023-01-28T03:18:21.412Z,83.83
2023-01-28T03:21:13.281Z,89.80
2023-01-28T03:24:06.174Z,94.53
2023-01-28T03:26:57.373Z,82.37
2023-01-28T03:29:44.958Z,88.73
2023-01-28T03:32:34.681Z,81.10
2023-01-28T03:35:20.917Z,87.17
2023-01-28T03:37:48.797Z,89.47
2023-01-28T03:40:22.756Z,81.37
2023-01-28T03:42:52.206Z,101.67
2023-01-28T03:45:33.020Z,93.07
2023-01-28T03:48:04.012Z,93.20
2023-01-28T03:50:31.925Z,98.17
2023-01-28T03:53:13.509Z,93.73
2023-01-28T03:55:54.151Z,94.63
2023-01-28T03:58:23.339Z,86.33
2023-01-28T04:00:52.082Z,91.03
2023-01-28T04:03:22.340Z,94.67
2023-01-28T04:06:00.826Z,96.37
2023-01-28T04:08:59.210Z,84.13
2023-01-28T04:11:46.014Z,85.60
2023-01-28T04:14:18.560Z,95.13
2023-01-28T04:16:52.019Z,91.17
2023-01-28T04:19:21.739Z,87.03
2023-01-28T04:21:49.885Z,93.63
2023-01-28T04:24:18.102Z,89.37
2023-01-28T04:26:45.909Z,104.40
2023-01-28T04:29:13.834Z,98.47
2023-01-28T04:31:41.612Z,101.13
2023-01-28T04:34:20.329Z,92.90
2023-01-28T04:37:11.018Z,93.17
2023-01-28T04:39:45.414Z,91.83
2023-01-28T04:42:39.333Z,87.03
2023-01-28T04:45:19.313Z,85.93
2023-01-28T04:48:10.397Z,90.50
2023-01-28T04:51:07.687Z,78.63
2023-01-28T04:53:50.667Z,90.07
2023-01-28T04:56:30.749Z,90.60
2023-01-28T04:58:58.444Z,87.07
2023-01-28T05:01:27.306Z,96.07
2023-01-28T05:03:55.015Z,96.80
2023-01-28T05:06:26.205Z,86.80
2023-01-28T05:09:15.526Z,82.00
2023-01-28T05:11:43.341Z,97.37
2023-01-28T05:14:11.136Z,89.30
2023-01-28T05:16:42.843Z,97.87
2023-01-28T05:19:12.181Z,93.70
2023-01-28T05:21:42.809Z,96.07
2023-01-28T05:24:21.489Z,85.90
2023-01-28T05:26:49.369Z,91.50
2023-01-28T05:29:18.067Z,98.63
2023-01-28T05:31:48.802Z,88.83
2023-01-28T05:34:18.268Z,91.33
2023-01-28T05:36:46.217Z,92.33
2023-01-28T05:39:28.947Z,95.03
2023-01-28T05:41:56.667Z,80.60
2023-01-28T05:44:24.758Z,86.67
2023-01-28T05:47:18.527Z,85.80
2023-01-28T05:49:52.464Z,93.03
2023-01-28T05:52:38.133Z,86.23
2023-01-28T05:55:11.359Z,92.13
2023-01-28T05:57:39.003Z,79.27
2023-01-28T06:00:09.777Z,76.23
2023-01-28T06:02:42.391Z,78.80
2023-01-28T06:05:12.405Z,83.17
2023-01-28T06:07:41.470Z,79.87
2023-01-28T06:10:13.976Z,74.90
2023-01-28T06:12:41.966Z,86.63
2023-01-28T06:15:39.327Z,80.43
2023-01-28T06:18:18.907Z,83.87
2023-01-28T06:20:46.682Z,85.57
2023-01-28T06:23:14.459Z,96.47
2023-01-28T06:25:43.559Z,96.37
2023-01-28T06:28:13.722Z,84.83
2023-01-28T06:30:41.560Z,89.70
2023-01-28T06:33:09.211Z,88.57
2023-01-28T06:35:36.902Z,87.57
2023-01-28T06:38:05.052Z,91.63
2023-01-28T06:40:32.742Z,88.20
2023-01-28T06:43:01.691Z,88.50
2023-01-28T06:45:29.396Z,87.33
2023-01-28T06:47:57.007Z,91.30
2023-01-28T06:50:25.068Z,100.43
2023-01-28T06:52:52.738Z,88.73
2023-01-28T06:55:20.431Z,92.43
2023-01-28T06:57:48.236Z,85.57
2023-01-28T07:00:18.706Z,93.07
2023-01-28T07:02:46.465Z,88.20
2023-01-28T07:05:14.163Z,89.00
2023-01-28T07:07:42.264Z,85.07
2023-01-28T07:10:11.583Z,78.13
2023-01-28T07:12:40.279Z,82.53
2023-01-28T07:15:10.841Z,86.50
2023-01-28T07:17:42.084Z,83.87
2023-01-28T07:20:12.174Z,79.30
2023-01-28T07:22:41.997Z,76.07
2023-01-28T07:25:12.059Z,85.27
2023-01-28T07:27:39.786Z,87.27
2023-01-28T07:30:08.578Z,88.47
2023-01-28T07:32:36.305Z,85.00
2023-01-28T07:35:05.874Z,82.43
2023-01-28T07:37:33.778Z,89.07
2023-01-28T07:40:01.531Z,85.37
2023-01-28T07:42:29.631Z,88.77
2023-01-28T07:44:57.494Z,88.73
2023-01-28T07:47:25.187Z,77.67
2023-01-28T07:49:52.879Z,84.77
2023-01-28T07:52:21.864Z,92.63
2023-01-28T07:54:49.509Z,81.13
2023-01-28T07:57:23.467Z,85.67
2023-01-28T07:59:51.678Z,86.00
2023-01-28T08:02:19.645Z,87.97
2023-01-28T08:04:47.668Z,87.40
2023-01-28T08:07:15.447Z,76.97
2023-01-28T08:09:44.381Z,91.40
2023-01-28T08:12:12.019Z,88.53
2023-01-28T08:14:39.718Z,90.93
2023-01-28T08:17:07.350Z,88.37
2023-01-28T08:19:34.978Z,92.50
2023-01-28T08:22:02.567Z,87.80
2023-01-28T08:24:30.336Z,84.40
2023-01-28T08:26:59.383Z,98.27
2023-01-28T08:29:27.019Z,103.40
2023-01-28T08:31:54.652Z,113.63
2023-01-28T08:34:22.533Z,103.90
2023-01-28T08:36:50.253Z,99.73
2023-01-28T08:39:17.870Z,118.20
2023-01-28T08:41:45.489Z,113.00
2023-01-28T08:44:14.416Z,103.30
2023-01-28T08:46:42.093Z,120.83
2023-01-28T08:49:09.868Z,106.40
2023-01-28T08:51:37.621Z,118.67
2023-01-28T08:54:05.305Z,119.93
2023-01-28T08:56:33.174Z,114.40
2023-01-28T08:59:00.797Z,122.77
2023-01-28T09:01:29.779Z,123.60
2023-01-28T09:03:57.437Z,114.97
2023-01-28T09:06:25.169Z,124.27
2023-01-28T09:08:52.797Z,134.50
2023-01-28T09:11:20.429Z,140.17
2023-01-28T09:13:48.059Z,135.83
2023-01-28T09:16:15.802Z,136.90
2023-01-28T09:18:45.092Z,136.83
2023-01-28T09:21:12.773Z,149.63
2023-01-28T09:23:40.415Z,136.83
2023-01-28T09:26:09.042Z,152.97
2023-01-28T09:28:38.298Z,142.20
2023-01-28T09:31:08.252Z,156.73
2023-01-28T09:33:37.457Z,154.63
2023-01-28T09:36:08.774Z,160.47
2023-01-28T09:38:36.500Z,163.37
2023-01-28T09:41:16.267Z,148.67
2023-01-28T09:43:57.128Z,150.23
2023-01-28T09:46:32.074Z,161.33
2023-01-28T09:49:02.282Z,164.97
2023-01-28T09:51:35.453Z,177.07
2023-01-28T09:54:07.464Z,166.83
2023-01-28T09:56:41.230Z,183.23
2023-01-28T09:59:20.170Z,167.67
2023-01-28T10:01:55.381Z,170.40
2023-01-28T10:04:34.130Z,168.10
2023-01-28T10:07:18.457Z,163.57
2023-01-28T10:09:52.082Z,158.33
2023-01-28T10:12:52.685Z,167.50
2023-01-28T10:15:31.850Z,162.80
2023-01-28T10:18:16.594Z,165.57
2023-01-28T10:20:49.632Z,150.47
2023-01-28T10:23:23.529Z,160.63
2023-01-28T10:25:51.183Z,167.13
2023-01-28T10:28:22.064Z,191.50
2023-01-28T10:30:50.158Z,172.00
2023-01-28T10:33:21.400Z,158.57
2023-01-28T10:35:49.631Z,178.97
2023-01-28T10:38:25.707Z,175.90
2023-01-28T10:40:53.779Z,175.33
2023-01-28T10:43:31.106Z,182.20
2023-01-28T10:46:03.621Z,170.60
2023-01-28T10:48:35.056Z,177.80
2023-01-28T10:51:06.057Z,172.60
2023-01-28T10:53:40.660Z,168.03
2023-01-28T10:56:11.098Z,164.90
2023-01-28T10:58:59.810Z,163.77
2023-01-28T11:01:40.094Z,167.27
2023-01-28T11:04:16.115Z,160.37
2023-01-28T11:06:43.863Z,169.63
2023-01-28T11:09:24.512Z,172.20
2023-01-28T11:11:52.207Z,178.87
2023-01-28T11:14:22.192Z,172.70
2023-01-28T11:16:52.783Z,185.53
2023-01-28T11:19:22.308Z,179.10
2023-01-28T11:21:53.092Z,178.40
2023-01-28T11:24:26.896Z,178.60
2023-01-28T11:26:57.461Z,172.03
2023-01-28T11:29:31.957Z,172.73
2023-01-28T11:32:00.729Z,152.83
2023-01-28T11:34:30.238Z,164.83
2023-01-28T11:37:04.354Z,162.37
2023-01-28T11:39:33.395Z,171.87
2023-01-28T11:42:17.130Z,165.67
2023-01-28T11:44:45.209Z,161.53
2023-01-28T11:47:45.079Z,168.03
2023-01-28T11:50:26.482Z,158.67
2023-01-28T11:53:08.046Z,159.47
2023-01-28T11:55:44.713Z,163.13
2023-01-28T11:58:22.496Z,162.50
2023-01-28T12:01:03.549Z,170.93
2023-01-28T12:03:44.124Z,164.30
2023-01-28T12:06:26.692Z,164.17
2023-01-28T12:09:01.550Z,164.67
2023-01-28T12:11:55.782Z,172.63
2023-01-28T12:14:31.047Z,163.80
2023-01-28T12:17:08.919Z,162.00
2023-01-28T12:19:56.947Z,164.53
2023-01-28T12:22:40.138Z,155.23
2023-01-28T12:25:22.281Z,161.63
2023-01-28T12:28:01.264Z,158.30
2023-01-28T12:30:44.658Z,168.77
2023-01-28T12:33:36.746Z,166.50
2023-01-28T12:36:17.238Z,143.33
2023-01-28T12:38:55.525Z,155.07
2023-01-28T12:41:29.509Z,152.97
2023-01-28T12:44:03.468Z,165.03
2023-01-28T12:46:39.851Z,176.70
2023-01-28T12:49:12.954Z,166.90
2023-01-28T12:51:52.036Z,179.03
2023-01-28T12:54:25.780Z,174.73
2023-01-28T12:56:55.224Z,180.83
2023-01-28T12:59:30.118Z,192.27
2023-01-28T13:02:06.601Z,167.13
2023-01-28T13:04:43.347Z,174.23
2023-01-28T13:07:15.290Z,170.93
2023-01-28T13:09:50.622Z,167.43
2023-01-28T13:12:19.605Z,174.10
2023-01-28T13:14:49.550Z,165.97
2023-01-28T13:17:27.288Z,182.30
2023-01-28T13:19:55.017Z,172.43
2023-01-28T13:22:31.843Z,177.70
2023-01-28T13:25:14.964Z,177.93
2023-01-28T13:27:42.800Z,173.10
2023-01-28T13:30:26.750Z,189.33
2023-01-28T13:32:59.776Z,166.37
2023-01-28T13:35:36.397Z,175.93
2023-01-28T13:38:10.130Z,166.03
2023-01-28T13:40:41.592Z,169.23
2023-01-28T13:43:27.042Z,164.63
2023-01-28T13:46:01.178Z,157.20
2023-01-28T13:48:33.538Z,171.90
2023-01-28T13:51:03.065Z,148.97
2023-01-28T13:53:41.169Z,173.23
2023-01-28T13:56:19.494Z,156.07
2023-01-28T13:59:10.124Z,150.27
2023-01-28T14:02:03.019Z,146.40
2023-01-28T14:05:00.272Z,149.20
2023-01-28T14:07:41.479Z,158.33
2023-01-28T14:10:45.116Z,148.70
2023-01-28T14:13:45.868Z,156.97
2023-01-28T14:16:31.310Z,146.20
2023-01-28T14:19:03.144Z,158.37
2023-01-28T14:21:34.907Z,157.60
2023-01-28T14:24:02.992Z,147.50
2023-01-28T14:26:41.710Z,153.07
2023-01-28T14:29:19.644Z,136.73
2023-01-28T14:31:48.146Z,137.93
2023-01-28T14:34:25.264Z,149.90
2023-01-28T14:36:57.040Z,149.47
2023-01-28T14:39:28.229Z,149.90
2023-01-28T14:41:59.249Z,153.77
2023-01-28T14:44:33.409Z,147.07
2023-01-28T14:47:30.523Z,144.60
2023-01-28T14:50:17.760Z,133.00
2023-01-28T14:53:02.312Z,133.47
2023-01-28T14:55:38.279Z,142.93
2023-01-28T14:58:10.000Z,131.93
2023-01-28T15:00:39.526Z,153.53
2023-01-28T15:03:24.927Z,137.63
2023-01-28T15:06:07.492Z,133.00
2023-01-28T15:08:35.816Z,145.00
2023-01-28T15:11:04.219Z,135.97
2023-01-28T15:13:37.449Z,132.57
2023-01-28T15:16:06.326Z,142.47
2023-01-28T15:18:37.260Z,151.70
2023-01-28T15:21:06.600Z,138.77
2023-01-28T15:23:36.130Z,138.57
2023-01-28T15:26:07.213Z,130.97
2023-01-28T15:28:37.836Z,140.17
2023-01-28T15:31:06.071Z,132.63
2023-01-28T15:33:33.844Z,147.90
2023-01-28T15:36:01.631Z,134.73
2023-01-28T15:38:30.737Z,139.57
2023-01-28T15:41:01.226Z,135.60
2023-01-28T15:43:31.426Z,141.30
2023-01-28T15:46:00.478Z,142.03
2023-01-28T15:48:30.141Z,142.97
2023-01-28T15:51:03.084Z,139.90
2023-01-28T15:53:42.929Z,136.77
2023-01-28T15:56:12.837Z,127.47
2023-01-28T15:58:42.222Z,124.33
2023-01-28T16:01:21.419Z,136.90
2023-01-28T16:04:01.927Z,128.27
2023-01-28T16:06:34.115Z,127.50
2023-01-28T16:09:05.795Z,136.83
2023-01-28T16:11:41.252Z,133.77
2023-01-28T16:14:25.144Z,129.07
2023-01-28T16:16:55.634Z,121.40
2023-01-28T16:19:33.630Z,120.10
2023-01-28T16:22:02.389Z,119.17
2023-01-28T16:24:36.090Z,124.77
2023-01-28T16:27:06.806Z,124.10
2023-01-28T16:29:34.579Z,121.10
2023-01-28T16:32:03.648Z,131.80
2023-01-28T16:34:31.400Z,139.77
2023-01-28T16:36:59.918Z,122.90
2023-01-28T16:39:27.566Z,124.00
2023-01-28T16:41:56.859Z,128.93
2023-01-28T16:44:24.624Z,129.80
2023-01-28T16:46:52.332Z,119.80
2023-01-28T16:49:19.979Z,127.97
2023-01-28T16:51:47.746Z,137.73
2023-01-28T16:54:17.334Z,121.37
2023-01-28T16:56:46.754Z,128.17
2023-01-28T16:59:17.121Z,130.43
2023-01-28T17:01:45.665Z,126.00
2023-01-28T17:04:13.639Z,130.87
2023-01-28T17:06:44.180Z,125.33
2023-01-28T17:09:12.991Z,126.13
2023-01-28T17:11:41.080Z,127.83
2023-01-28T17:14:09.430Z,122.43
2023-01-28T17:16:38.685Z,125.70
2023-01-28T17:19:06.565Z,125.07
2023-01-28T17:21:34.211Z,111.53
2023-01-28T17:24:03.017Z,128.87
2023-01-28T17:26:30.956Z,118.77
2023-01-28T17:28:58.595Z,127.10
2023-01-28T17:31:27.279Z,132.73
2023-01-28T17:33:58.064Z,123.00
2023-01-28T17:36:26.893Z,128.53
2023-01-28T17:38:55.056Z,125.83
2023-01-28T17:41:23.048Z,121.17
2023-01-28T17:43:51.617Z,124.60
2023-01-28T17:46:20.070Z,128.40
2023-01-28T17:48:47.923Z,123.47
2023-01-28T17:51:18.654Z,113.30
2023-01-28T17:53:47.554Z,125.67
2023-01-28T17:56:19.314Z,128.37
2023-01-28T17:58:50.884Z,112.93
2023-01-28T18:01:18.684Z,113.87
2023-01-28T18:03:46.538Z,127.00
2023-01-28T18:06:14.200Z,117.10
2023-01-28T18:08:43.898Z,117.50
2023-01-28T18:11:14.025Z,120.03
2023-01-28T18:13:43.044Z,123.03
2023-01-28T18:16:15.902Z,125.67
2023-01-28T18:18:43.834Z,124.03
2023-01-28T18:21:21.045Z,111.00
2023-01-28T18:23:53.532Z,123.13
2023-01-28T18:26:22.108Z,110.73
2023-01-28T18:28:49.781Z,117.00
2023-01-28T18:31:17.523Z,120.10
2023-01-28T18:33:45.247Z,127.13
2023-01-28T18:36:13.022Z,114.70
2023-01-28T18:38:40.688Z,131.43
2023-01-28T18:41:09.694Z,118.17
2023-01-28T18:43:37.381Z,118.80
2023-01-28T18:46:11.546Z,119.70
2023-01-28T18:48:39.495Z,117.00
2023-01-28T18:51:17.454Z,117.70
2023-01-28T18:53:57.682Z,108.97
2023-01-28T18:56:26.911Z,118.83
2023-01-28T18:58:57.640Z,120.90
2023-01-28T19:01:25.303Z,112.13
2023-01-28T19:03:54.444Z,110.77
2023-01-28T19:06:22.218Z,115.40
2023-01-28T19:08:53.481Z,117.90
2023-01-28T19:11:21.800Z,119.93
2023-01-28T19:13:51.009Z,118.10
2023-01-28T19:16:19.200Z,115.57
2023-01-28T19:18:52.791Z,115.67
2023-01-28T19:21:20.518Z,118.93
2023-01-28T19:23:50.393Z,114.07
2023-01-28T19:26:21.234Z,114.80
2023-01-28T19:28:51.085Z,115.53
2023-01-28T19:31:19.642Z,118.67
2023-01-28T19:33:47.391Z,113.13
2023-01-28T19:36:15.208Z,116.40
2023-01-28T19:38:42.891Z,106.33
2023-01-28T19:41:13.375Z,110.80
2023-01-28T19:43:41.077Z,118.70
2023-01-28T19:46:14.408Z,117.23
2023-01-28T19:48:42.138Z,121.17
2023-01-28T19:51:10.819Z,126.63
2023-01-28T19:53:40.084Z,111.87
2023-01-28T19:56:10.507Z,117.90
2023-01-28T19:58:39.772Z,122.87
2023-01-28T20:01:08.674Z,115.77
2023-01-28T20:03:38.386Z,126.07
2023-01-28T20:06:07.950Z,127.00
2023-01-28T20:08:35.612Z,119.10
2023-01-28T20:11:05.152Z,111.43
2023-01-28T20:13:34.049Z,120.77
2023-01-28T20:16:05.837Z,116.47
2023-01-28T20:18:33.945Z,116.27
2023-01-28T20:21:04.920Z,116.97
2023-01-28T20:23:33.598Z,109.80
2023-01-28T20:26:01.901Z,116.60
2023-01-28T20:28:29.769Z,111.33
2023-01-28T20:30:57.491Z,109.93
2023-01-28T20:33:25.328Z,123.33
2023-01-28T20:35:53.068Z,121.33
2023-01-28T20:38:22.048Z,109.47
2023-01-28T20:40:49.688Z,114.43
2023-01-28T20:43:17.353Z,113.00
2023-01-28T20:45:45.015Z,107.60
2023-01-28T20:48:12.774Z,114.00
2023-01-28T20:50:40.557Z,121.30
2023-01-28T20:53:08.203Z,97.63
2023-01-28T20:55:37.230Z,107.90
2023-01-28T20:58:05.288Z,109.70
2023-01-28T21:00:32.957Z,113.23
2023-01-28T21:03:00.710Z,115.50
2023-01-28T21:05:28.370Z,117.20
2023-01-28T21:07:56.029Z,118.93
2023-01-28T21:10:23.664Z,112.23
2023-01-28T21:12:52.673Z,122.03
2023-01-28T21:15:20.281Z,119.00
2023-01-28T21:17:47.927Z,118.77
2023-01-28T21:20:16.240Z,115.87
2023-01-28T21:22:44.031Z,111.43
2023-01-28T21:25:11.687Z,117.77
2023-01-28T21:27:39.378Z,116.23
2023-01-28T21:30:09.960Z,121.93
2023-01-28T21:32:37.621Z,111.50
2023-01-28T21:35:05.622Z,113.60
2023-01-28T21:37:33.293Z,115.50
2023-01-28T21:40:00.955Z,116.17
2023-01-28T21:42:28.997Z,113.97
2023-01-28T21:44:56.601Z,105.73
2023-01-28T21:47:25.699Z,112.93
2023-01-28T21:49:53.320Z,104.40
2023-01-28T21:52:22.037Z,103.47
2023-01-28T21:54:49.654Z,117.80
2023-01-28T21:57:17.281Z,114.70
2023-01-28T21:59:43.917Z,116.77
2023-01-28T22:02:13.757Z,109.43
2023-01-28T22:04:44.431Z,114.33
2023-01-28T22:07:14.125Z,104.13
2023-01-28T22:09:42.347Z,116.57
2023-01-28T22:12:10.502Z,107.53
2023-01-28T22:14:39.723Z,119.53
2023-01-28T22:17:09.144Z,111.50
2023-01-28T22:19:36.902Z,102.43
2023-01-28T22:22:06.402Z,113.97
2023-01-28T22:24:34.320Z,105.87
2023-01-28T22:27:01.998Z,110.20
2023-01-28T22:29:29.635Z,114.33
2023-01-28T22:31:57.337Z,114.70
2023-01-28T22:34:25.246Z,100.60
2023-01-28T22:36:52.918Z,99.10
2023-01-28T22:39:21.977Z,109.27
2023-01-28T22:41:49.645Z,99.70
2023-01-28T22:44:19.620Z,101.23
2023-01-28T22:46:48.030Z,106.67
2023-01-28T22:49:15.795Z,115.17
2023-01-28T22:51:43.843Z,100.77
2023-01-28T22:54:13.619Z,100.13
2023-01-28T22:56:42.661Z,100.83
2023-01-28T22:59:10.992Z,101.10
2023-01-28T23:01:39.916Z,113.70
2023-01-28T23:04:07.674Z,106.67
2023-01-28T23:06:37.093Z,102.10
2023-01-28T23:09:05.010Z,99.50
2023-01-28T23:11:33.208Z,110.73
2023-01-28T23:14:21.998Z,105.87
2023-01-28T23:17:16.633Z,101.47
2023-01-28T23:20:02.164Z,93.53
2023-01-28T23:22:50.959Z,102.77
2023-01-28T23:25:19.282Z,99.47
2023-01-28T23:27:46.923Z,108.00
2023-01-28T23:30:16.443Z,109.13
2023-01-28T23:32:48.124Z,105.77
2023-01-28T23:35:16.404Z,99.63
2023-01-28T23:37:44.240Z,107.83
2023-01-28T23:40:13.502Z,95.53
2023-01-28T23:42:41.667Z,110.27
2023-01-28T23:45:10.418Z,100.87
2023-01-28T23:47:39.403Z,99.23
2023-01-28T23:50:07.606Z,97.33
2023-01-28T23:52:35.263Z,101.00
2023-01-28T23:55:03.106Z,94.97
2023-01-28T23:57:30.817Z,107.40
2023-01-28T23:59:58.467Z,98.07
